Time;durP1;ratioP1;P1;durP2;ratioP2;P2;SDS_P1;SDS_P2;PMS_P1;PMS_P2;Temp;Humidity;BMP_temperature;BMP_pressure;BME280_temperature;BME280_humidity;BME280_pressure;Samples;Min_cycle;Max_cycle;Signal;HPM_P1;HPM_P2
2022/05/14 00:01:11;;;;;;;5.57;2.33;;;;;;;;;;5055382;28;20209;-88
2022/05/14 00:03:39;;;;;;;2.60;1.80;;;;;;;;;;5054375;28;20240;-87
2022/05/14 00:06:08;;;;;;;2.87;2.00;;;;;;;;;;5055290;28;20264;-88
2022/05/14 00:08:37;;;;;;;2.20;2.00;;;;;;;;;;5054404;28;20697;-88
2022/05/14 00:13:50;;;;;;;3.03;1.97;;;;;;;;;;5053973;28;20716;-88
2022/05/14 00:16:17;;;;;;;2.70;1.80;;;;;;;;;;5054878;28;20206;-88
2022/05/14 00:18:45;;;;;;;3.33;2.73;;;;;;;;;;5054206;28;20245;-89
2022/05/14 00:21:12;;;;;;;3.60;2.00;;;;;;;;;;5054482;28;20674;-88
2022/05/14 00:23:40;;;;;;;2.33;1.97;;;;;;;;;;5053855;28;20238;-87
2022/05/14 00:26:08;;;;;;;4.10;2.10;;;;;;;;;;5054630;28;20210;-88
2022/05/14 00:28:35;;;;;;;5.07;2.00;;;;;;;;;;5054170;28;20325;-87
2022/05/14 00:31:02;;;;;;;2.23;1.70;;;;;;;;;;5054407;28;20217;-88
2022/05/14 00:33:29;;;;;;;2.57;1.90;;;;;;;;;;5053615;28;20232;-88
2022/05/14 00:35:56;;;;;;;3.33;2.20;;;;;;;;;;5054271;28;20206;-88
2022/05/14 00:38:23;;;;;;;2.40;2.20;;;;;;;;;;5053853;28;20244;-88
2022/05/14 00:40:57;;;;;;;2.00;1.80;;;;;;;;;;5054113;28;20213;-88
2022/05/14 00:43:25;;;;;;;2.17;1.97;;;;;;;;;;5053626;28;20240;-88
2022/05/14 00:45:54;;;;;;;4.73;2.00;;;;;;;;;;5054107;28;20225;-88
2022/05/14 00:48:22;;;;;;;3.57;2.23;;;;;;;;;;5053231;28;20666;-87
2022/05/14 00:50:50;;;;;;;4.30;1.90;;;;;;;;;;5054262;28;20579;-87
2022/05/14 00:53:19;;;;;;;2.13;1.97;;;;;;;;;;5053250;28;20220;-88
2022/05/14 00:55:47;;;;;;;2.60;2.00;;;;;;;;;;5054235;28;20206;-88
2022/05/14 00:58:18;;;;;;;5.93;2.30;;;;;;;;;;5053577;28;20236;-88
2022/05/14 01:00:45;;;;;;;5.23;2.07;;;;;;;;;;5050974;28;20229;-88
2022/05/14 01:03:12;;;;;;;2.00;1.90;;;;;;;;;;5033056;28;20203;-87
2022/05/14 01:05:39;;;;;;;1.97;1.83;;;;;;;;;;5039851;28;20571;-88
2022/05/14 01:08:07;;;;;;;4.60;1.93;;;;;;;;;;5059416;28;20226;-87
2022/05/14 01:10:37;;;;;;;3.40;1.80;;;;;;;;;;5053537;28;20214;-88
2022/05/14 01:13:04;;;;;;;11.90;2.57;;;;;;;;;;5068238;28;20689;-88
2022/05/14 01:15:44;;;;;;;2.37;2.00;;;;;;;;;;5072734;28;20216;-87
2022/05/14 01:18:12;;;;;;;2.00;1.90;;;;;;;;;;5072810;28;20247;-88
2022/05/14 01:20:40;;;;;;;3.40;2.07;;;;;;;;;;5073667;28;20205;-87
2022/05/14 01:23:13;;;;;;;4.00;2.10;;;;;;;;;;5072920;28;20213;-88
2022/05/14 01:28:29;;;;;;;5.67;2.20;;;;;;;;;;5072608;28;20308;-88
2022/05/14 01:30:57;;;;;;;2.53;2.13;;;;;;;;;;5072921;28;20685;-88
2022/05/14 01:33:24;;;;;;;2.40;2.20;;;;;;;;;;5072514;28;20236;-88
2022/05/14 01:35:51;;;;;;;3.70;2.40;;;;;;;;;;5072938;28;20197;-88
2022/05/14 01:38:19;;;;;;;2.40;2.20;;;;;;;;;;5072170;28;20225;-87
2022/05/14 01:40:46;;;;;;;3.50;2.10;;;;;;;;;;5072880;28;20220;-88
2022/05/14 01:43:13;;;;;;;2.87;2.10;;;;;;;;;;5072391;28;20212;-88
2022/05/14 01:45:42;;;;;;;2.60;2.13;;;;;;;;;;5072844;28;20224;-88
2022/05/14 01:48:09;;;;;;;4.17;2.23;;;;;;;;;;5072374;28;20248;-87
2022/05/14 01:50:38;;;;;;;4.13;2.00;;;;;;;;;;5072938;28;20209;-88
2022/05/14 01:53:05;;;;;;;4.60;2.40;;;;;;;;;;5071952;28;20220;-88
2022/05/14 01:55:32;;;;;;;3.93;2.20;;;;;;;;;;5072686;28;20205;-88
2022/05/14 01:57:59;;;;;;;2.70;2.50;;;;;;;;;;5072404;28;20208;-88
2022/05/14 02:00:26;;;;;;;2.60;2.40;;;;;;;;;;5071202;28;20240;-87
2022/05/14 02:02:55;;;;;;;2.53;2.30;;;;;;;;;;5072704;28;20206;-87
2022/05/14 02:05:22;;;;;;;4.17;2.50;;;;;;;;;;5071735;28;20229;-88
2022/05/14 02:07:49;;;;;;;3.00;2.47;;;;;;;;;;5072385;28;20236;-88
2022/05/14 02:10:16;;;;;;;3.40;2.00;;;;;;;;;;5071976;28;20233;-88
2022/05/14 02:12:43;;;;;;;3.67;2.27;;;;;;;;;;5072727;28;20220;-87
2022/05/14 02:15:11;;;;;;;4.13;2.40;;;;;;;;;;5071600;28;20254;-87
2022/05/14 02:17:38;;;;;;;5.53;2.50;;;;;;;;;;5072189;28;20205;-87
2022/05/14 02:20:07;;;;;;;4.53;2.87;;;;;;;;;;5071751;28;20236;-88
2022/05/14 02:22:34;;;;;;;3.60;2.43;;;;;;;;;;5072248;28;20204;-88
2022/05/14 02:25:01;;;;;;;3.13;2.20;;;;;;;;;;5071857;28;20229;-88
2022/05/14 02:27:29;;;;;;;3.93;2.13;;;;;;;;;;5086469;28;20208;-88
2022/05/14 02:29:56;;;;;;;2.60;2.40;;;;;;;;;;5094455;28;20244;-87
2022/05/14 02:32:24;;;;;;;2.37;2.17;;;;;;;;;;5094607;28;20205;-88
2022/05/14 02:34:51;;;;;;;2.53;2.37;;;;;;;;;;5093768;28;20229;-88
2022/05/14 02:37:21;;;;;;;6.47;2.50;;;;;;;;;;5093776;28;20197;-88
2022/05/14 02:39:48;;;;;;;4.37;2.43;;;;;;;;;;5088690;28;20236;-87
2022/05/14 02:42:15;;;;;;;2.57;2.10;;;;;;;;;;5088620;28;20236;-87
2022/05/14 02:44:42;;;;;;;4.63;2.23;;;;;;;;;;5088131;28;20248;-87
2022/05/14 02:47:10;;;;;;;6.17;2.63;;;;;;;;;;5089931;28;20205;-88
2022/05/14 02:49:37;;;;;;;3.80;2.37;;;;;;;;;;5073534;28;20237;-88
2022/05/14 02:52:05;;;;;;;3.83;2.70;;;;;;;;;;5073260;28;20202;-87
2022/05/14 02:54:33;;;;;;;2.53;2.20;;;;;;;;;;5071580;28;20229;-87
2022/05/14 02:57:00;;;;;;;2.70;2.50;;;;;;;;;;5072031;28;20201;-88
2022/05/14 02:59:27;;;;;;;2.97;2.53;;;;;;;;;;5071504;28;20635;-87
2022/05/14 03:01:54;;;;;;;6.27;2.70;;;;;;;;;;5071826;28;20677;-88
2022/05/14 03:04:23;;;;;;;3.73;2.60;;;;;;;;;;5071208;28;20236;-87
2022/05/14 03:06:50;;;;;;;3.63;2.63;;;;;;;;;;5072108;28;20251;-88
2022/05/14 03:09:18;;;;;;;3.40;2.60;;;;;;;;;;5071087;28;20233;-88
2022/05/14 03:11:47;;;;;;;2.50;2.30;;;;;;;;;;5073700;28;20663;-88
2022/05/14 03:14:15;;;;;;;2.80;2.33;;;;;;;;;;5075301;28;20238;-88
2022/05/14 03:16:43;;;;;;;2.70;2.37;;;;;;;;;;5075655;28;20669;-87
2022/05/14 03:19:11;;;;;;;3.27;2.30;;;;;;;;;;5074872;28;20248;-87
2022/05/14 03:21:38;;;;;;;5.53;2.57;;;;;;;;;;5075713;28;20209;-88
2022/05/14 03:24:06;;;;;;;4.63;2.50;;;;;;;;;;5074768;28;20237;-88
2022/05/14 03:26:33;;;;;;;4.60;2.40;;;;;;;;;;5075946;28;20209;-87
2022/05/14 03:29:01;;;;;;;4.47;2.30;;;;;;;;;;5075052;28;20233;-87
2022/05/14 03:31:28;;;;;;;6.10;2.40;;;;;;;;;;5075905;28;20201;-87
2022/05/14 03:33:55;;;;;;;7.57;2.40;;;;;;;;;;5075767;28;20239;-87
2022/05/14 03:36:22;;;;;;;3.10;2.57;;;;;;;;;;5088718;28;20212;-87
2022/05/14 03:38:49;;;;;;;2.50;2.30;;;;;;;;;;5074973;28;20237;-88
2022/05/14 03:41:17;;;;;;;3.63;2.60;;;;;;;;;;5075911;28;20228;-87
2022/05/14 03:43:44;;;;;;;2.37;2.17;;;;;;;;;;5074873;28;20770;-88
2022/05/14 03:46:13;;;;;;;4.80;2.30;;;;;;;;;;5075130;28;20316;-87
2022/05/14 03:48:40;;;;;;;2.47;2.27;;;;;;;;;;5076051;28;20233;-86
2022/05/14 03:51:07;;;;;;;5.07;2.17;;;;;;;;;;5076871;28;20205;-86
2022/05/14 03:53:35;;;;;;;3.43;2.40;;;;;;;;;;5076277;28;20236;-86
2022/05/14 03:56:02;;;;;;;2.90;2.20;;;;;;;;;;5077096;28;20201;-86
2022/05/14 03:58:30;;;;;;;2.53;2.33;;;;;;;;;;5075927;28;20233;-86
2022/05/14 04:00:57;;;;;;;4.43;2.30;;;;;;;;;;5065449;28;20198;-86
2022/05/14 04:03:26;;;;;;;3.43;2.20;;;;;;;;;;5056389;28;20599;-86
2022/05/14 04:05:53;;;;;;;3.57;2.23;;;;;;;;;;5056876;28;20242;-85
2022/05/14 04:08:20;;;;;;;2.30;2.10;;;;;;;;;;5056261;28;20569;-85
2022/05/14 04:10:47;;;;;;;2.30;2.20;;;;;;;;;;5057004;28;20575;-86
2022/05/14 04:13:14;;;;;;;2.57;2.37;;;;;;;;;;5056805;28;20295;-85
2022/05/14 04:15:42;;;;;;;3.30;2.30;;;;;;;;;;5058138;28;20661;-82
2022/05/14 04:18:10;;;;;;;3.67;2.20;;;;;;;;;;5058328;28;20237;-86
2022/05/14 04:20:38;;;;;;;2.43;2.20;;;;;;;;;;5055871;28;20241;-85
2022/05/14 04:23:07;;;;;;;2.70;2.10;;;;;;;;;;5054407;28;20604;-87
2022/05/14 04:25:34;;;;;;;3.70;2.30;;;;;;;;;;5055929;28;20211;-87
2022/05/14 04:28:01;;;;;;;2.83;2.50;;;;;;;;;;5055257;28;20226;-85
2022/05/14 04:30:28;;;;;;;2.33;2.10;;;;;;;;;;5055712;28;20202;-86
2022/05/14 04:32:55;;;;;;;2.93;2.20;;;;;;;;;;5055475;28;20217;-86
2022/05/14 04:35:22;;;;;;;2.23;2.03;;;;;;;;;;5054660;28;20241;-86
2022/05/14 04:37:51;;;;;;;3.13;2.20;;;;;;;;;;5056008;28;20206;-85
2022/05/14 04:40:18;;;;;;;2.37;2.17;;;;;;;;;;5054750;28;20307;-86
2022/05/14 04:42:45;;;;;;;2.43;2.27;;;;;;;;;;5055314;28;20593;-86
2022/05/14 04:45:12;;;;;;;3.10;2.90;;;;;;;;;;5054445;28;20238;-86
2022/05/14 04:47:41;;;;;;;2.70;2.20;;;;;;;;;;5055593;28;20201;-86
2022/05/14 04:50:09;;;;;;;2.57;2.37;;;;;;;;;;5055876;28;20230;-85
2022/05/14 04:52:36;;;;;;;2.30;2.13;;;;;;;;;;5056743;28;20214;-83
2022/05/14 04:55:04;;;;;;;3.20;2.27;;;;;;;;;;5056065;28;20233;-83
2022/05/14 04:57:31;;;;;;;3.23;2.43;;;;;;;;;;5057010;28;20202;-82
2022/05/14 04:59:58;;;;;;;2.63;2.43;;;;;;;;;;5056500;28;20240;-82
2022/05/14 05:05:12;;;;;;;2.83;2.50;;;;;;;;;;5056389;28;20288;-83
2022/05/14 05:07:39;;;;;;;3.37;2.80;;;;;;;;;;5057016;28;20210;-84
2022/05/14 05:10:08;;;;;;;5.73;2.60;;;;;;;;;;5055735;28;20242;-83
2022/05/14 05:12:35;;;;;;;2.73;2.53;;;;;;;;;;5056443;28;20671;-84
2022/05/14 05:15:02;;;;;;;5.93;2.80;;;;;;;;;;5055473;28;20579;-82
2022/05/14 05:17:29;;;;;;;2.73;2.53;;;;;;;;;;5056547;28;20627;-84
2022/05/14 05:19:56;;;;;;;5.80;3.03;;;;;;;;;;5056158;28;20702;-83
2022/05/14 05:22:23;;;;;;;2.90;2.60;;;;;;;;;;5057369;28;20674;-83
2022/05/14 05:24:51;;;;;;;4.47;3.00;;;;;;;;;;5055605;28;20234;-82
2022/05/14 05:27:19;;;;;;;4.47;2.80;;;;;;;;;;5056627;28;20209;-82
2022/05/14 05:29:46;;;;;;;3.83;2.83;;;;;;;;;;5056612;28;20233;-82
2022/05/14 05:32:13;;;;;;;2.87;2.57;;;;;;;;;;5056541;28;20230;-84
2022/05/14 05:34:40;;;;;;;3.87;2.93;;;;;;;;;;5053846;28;20238;-83
2022/05/14 05:37:07;;;;;;;3.13;2.80;;;;;;;;;;5054910;28;20198;-84
2022/05/14 05:39:35;;;;;;;4.87;3.00;;;;;;;;;;5054529;28;20245;-83
2022/05/14 05:42:02;;;;;;;2.80;2.40;;;;;;;;;;5054507;28;20626;-84
2022/05/14 05:44:30;;;;;;;3.30;2.60;;;;;;;;;;5053515;28;20598;-83
2022/05/14 05:46:57;;;;;;;7.33;2.53;;;;;;;;;;5053580;28;20209;-83
2022/05/14 05:49:24;;;;;;;2.70;2.43;;;;;;;;;;5053251;28;20237;-83
2022/05/14 05:51:51;;;;;;;3.33;2.50;;;;;;;;;;5053872;28;20206;-83
2022/05/14 05:57:03;;;;;;;3.10;2.70;;;;;;;;;;5054085;28;20201;-83
2022/05/14 05:59:32;;;;;;;3.10;2.60;;;;;;;;;;5053911;28;20244;-84
2022/05/14 06:02:00;;;;;;;4.00;2.67;;;;;;;;;;5034102;28;20217;-83
2022/05/14 06:04:27;;;;;;;4.73;2.67;;;;;;;;;;5034080;28;20608;-85
2022/05/14 06:06:54;;;;;;;2.70;2.50;;;;;;;;;;5033826;28;20214;-85
2022/05/14 06:09:29;;;;;;;7.03;2.53;;;;;;;;;;5033176;28;20241;-85
2022/05/14 06:11:58;;;;;;;4.23;2.43;;;;;;;;;;5033912;28;20210;-85
2022/05/14 06:14:25;;;;;;;2.93;2.40;;;;;;;;;;5032849;28;20321;-85
2022/05/14 06:16:54;;;;;;;2.50;2.30;;;;;;;;;;5035355;28;20560;-82
2022/05/14 06:19:21;;;;;;;3.50;2.40;;;;;;;;;;5053762;28;20629;-84
2022/05/14 06:21:48;;;;;;;5.30;2.50;;;;;;;;;;5052159;28;20224;-82
2022/05/14 06:24:15;;;;;;;4.60;2.33;;;;;;;;;;5032519;28;20234;-85
2022/05/14 06:26:42;;;;;;;3.70;2.30;;;;;;;;;;5033228;28;20725;-85
2022/05/14 06:29:09;;;;;;;3.10;2.67;;;;;;;;;;5049015;28;20238;-87
2022/05/14 06:31:37;;;;;;;2.97;2.00;;;;;;;;;;5054443;28;20202;-87
2022/05/14 06:34:05;;;;;;;3.37;2.07;;;;;;;;;;5052440;28;20722;-87
2022/05/14 06:36:33;;;;;;;4.80;2.40;;;;;;;;;;5052229;28;20213;-86
2022/05/14 06:39:01;;;;;;;2.37;2.17;;;;;;;;;;5051500;28;20312;-87
2022/05/14 06:41:29;;;;;;;4.47;2.03;;;;;;;;;;5052271;28;20198;-86
2022/05/14 06:43:56;;;;;;;3.70;1.90;;;;;;;;;;5052088;28;20238;-86
2022/05/14 06:46:23;;;;;;;7.33;2.30;;;;;;;;;;5051566;28;20203;-86
2022/05/14 06:48:50;;;;;;;5.83;1.90;;;;;;;;;;5050507;28;20237;-86
2022/05/14 06:51:20;;;;;;;6.37;3.00;;;;;;;;;;5066741;28;20198;-85
2022/05/14 06:53:48;;;;;;;2.53;1.97;;;;;;;;;;5070692;28;20261;-85
2022/05/14 06:56:16;;;;;;;2.73;2.20;;;;;;;;;;5072799;28;20209;-84
2022/05/14 06:58:45;;;;;;;3.83;2.17;;;;;;;;;;5077702;28;20315;-85
2022/05/14 07:01:12;;;;;;;4.07;2.27;;;;;;;;;;5083576;28;20205;-88
2022/05/14 07:06:39;;;;;;;4.30;2.30;;;;;;;;;;5074466;28;20603;-85
2022/05/14 07:09:07;;;;;;;3.67;2.37;;;;;;;;;;5075950;28;20248;-87
2022/05/14 07:11:34;;;;;;;4.53;2.37;;;;;;;;;;5067104;28;20210;-87
2022/05/14 07:14:02;;;;;;;7.87;3.37;;;;;;;;;;5052083;28;20321;-85
2022/05/14 07:16:29;;;;;;;4.53;2.33;;;;;;;;;;5053535;28;20221;-87
2022/05/14 07:18:56;;;;;;;4.30;2.67;;;;;;;;;;5059038;28;20395;-87
2022/05/14 07:21:23;;;;;;;3.28;1.98;;;;;;;;;;5040872;28;20226;-87
2022/05/14 07:23:51;;;;;;;6.18;1.85;;;;;;;;;;5035724;28;20728;-88
2022/05/14 07:26:21;;;;;;;3.25;2.28;;;;;;;;;;5035411;28;20222;-87
2022/05/14 07:28:48;;;;;;;4.43;2.00;;;;;;;;;;5035741;28;20239;-86
2022/05/14 07:31:15;;;;;;;5.30;2.35;;;;;;;;;;5051250;28;20245;-87
2022/05/14 07:33:42;;;;;;;3.78;2.20;;;;;;;;;;5040781;28;20230;-86
2022/05/14 07:36:13;;;;;;;7.22;2.40;;;;;;;;;;5038830;28;20203;-86
2022/05/14 07:38:40;;;;;;;4.68;2.58;;;;;;;;;;5037300;28;20241;-87
2022/05/14 07:41:11;;;;;;;5.75;1.92;;;;;;;;;;5044248;28;20245;-87
2022/05/14 07:43:39;;;;;;;5.03;2.40;;;;;;;;;;5044752;28;20303;-88
2022/05/14 07:46:07;;;;;;;3.50;2.22;;;;;;;;;;5042249;28;20237;-88
2022/05/14 07:48:36;;;;;;;6.38;2.75;;;;;;;;;;5032180;28;20235;-87
2022/05/14 07:51:04;;;;;;;5.68;2.25;;;;;;;;;;5046307;28;20199;-87
2022/05/14 07:53:32;;;;;;;9.15;2.13;;;;;;;;;;5046325;28;20249;-87
2022/05/14 07:55:59;;;;;;;3.00;1.92;;;;;;;;;;5052990;28;20202;-87
2022/05/14 07:58:27;;;;;;;5.35;2.15;;;;;;;;;;5053401;28;20234;-87
2022/05/14 08:00:55;;;;;;;2.40;1.90;;;;;;;;;;5057819;28;20217;-87
2022/05/14 08:03:24;;;;;;;4.55;2.35;;;;;;;;;;5051917;28;20287;-88
2022/05/14 08:05:51;;;;;;;3.78;1.80;;;;;;;;;;5055233;28;20233;-87
2022/05/14 08:08:18;;;;;;;4.07;2.13;;;;;;;;;;5034585;28;20227;-88
2022/05/14 08:10:45;;;;;;;4.90;2.20;;;;;;;;;;5034924;28;20361;-89
2022/05/14 08:13:15;;;;;;;4.40;1.80;;;;;;;;;;5046283;28;20202;-88
2022/05/14 08:15:45;;;;;;;4.70;2.00;;;;;;;;;;5055554;28;20222;-87
2022/05/14 08:18:12;;;;;;;3.53;1.90;;;;;;;;;;5055105;28;20725;-88
2022/05/14 08:20:39;;;;;;;4.28;1.90;;;;;;;;;;5055756;28;20202;-88
2022/05/14 08:25:52;;;;;;;4.07;2.40;;;;;;;;;;5056390;28;20339;-84
2022/05/14 08:28:19;;;;;;;3.33;1.55;;;;;;;;;;5057720;28;20226;-84
2022/05/14 08:30:47;;;;;;;6.68;2.40;;;;;;;;;;5047623;28;20218;-83
2022/05/14 08:33:15;;;;;;;3.97;2.05;;;;;;;;;;5051194;28;20206;-82
2022/05/14 08:35:42;;;;;;;3.13;1.70;;;;;;;;;;5059085;28;20203;-83
2022/05/14 08:38:11;;;;;;;2.53;1.95;;;;;;;;;;5060063;28;20706;-82
2022/05/14 08:40:40;;;;;;;4.75;1.98;;;;;;;;;;5055975;28;20206;-83
2022/05/14 08:43:11;;;;;;;3.88;1.98;;;;;;;;;;5055901;28;20214;-84
2022/05/14 08:45:40;;;;;;;6.53;2.00;;;;;;;;;;5057349;28;20190;-81
2022/05/14 08:48:15;;;;;;;2.13;1.70;;;;;;;;;;5055663;28;20225;-83
2022/05/14 08:50:42;;;;;;;5.10;2.00;;;;;;;;;;5055624;28;20244;-83
2022/05/14 08:53:12;;;;;;;4.63;1.80;;;;;;;;;;5055167;28;20214;-85
2022/05/14 08:55:41;;;;;;;2.45;1.48;;;;;;;;;;5060301;28;20206;-84
2022/05/14 08:58:13;;;;;;;5.45;2.20;;;;;;;;;;5072311;28;20222;-83
2022/05/14 09:00:40;;;;;;;6.60;2.05;;;;;;;;;;5074681;28;20194;-86
2022/05/14 09:03:08;;;;;;;3.55;2.08;;;;;;;;;;5067402;28;20212;-83
2022/05/14 09:05:37;;;;;;;4.43;1.90;;;;;;;;;;5057599;28;20206;-82
2022/05/14 09:08:04;;;;;;;2.95;2.17;;;;;;;;;;5056720;28;20970;-83
2022/05/14 09:10:32;;;;;;;2.25;1.75;;;;;;;;;;5055914;28;20670;-82
2022/05/14 09:13:02;;;;;;;2.17;1.60;;;;;;;;;;5056386;28;20214;-83
2022/05/14 09:15:32;;;;;;;3.90;1.75;;;;;;;;;;5056598;28;20230;-82
2022/05/14 09:18:06;;;;;;;3.17;1.90;;;;;;;;;;5060219;28;20206;-82
2022/05/14 09:20:41;;;;;;;4.72;1.80;;;;;;;;;;5058110;28;20693;-82
2022/05/14 09:23:08;;;;;;;5.60;1.67;;;;;;;;;;5056908;28;20201;-87
2022/05/14 09:25:38;;;;;;;3.70;1.95;;;;;;;;;;5059686;28;20190;-82
2022/05/14 09:28:08;;;;;;;4.15;2.05;;;;;;;;;;5039996;28;20226;-83
2022/05/14 09:30:37;;;;;;;3.38;1.85;;;;;;;;;;5041363;28;20643;-82
2022/05/14 09:33:07;;;;;;;3.75;1.85;;;;;;;;;;5060006;28;20221;-84
2022/05/14 09:35:35;;;;;;;3.50;1.98;;;;;;;;;;5061474;28;20194;-83
2022/05/14 09:38:12;;;;;;;3.25;1.83;;;;;;;;;;5052344;28;20875;-83
2022/05/14 09:40:40;;;;;;;4.63;2.08;;;;;;;;;;5053532;28;20194;-85
2022/05/14 09:43:23;;;;;;;3.40;1.85;;;;;;;;;;5052204;28;20205;-84
2022/05/14 09:45:58;;;;;;;5.32;2.10;;;;;;;;;;5053162;28;20201;-84
2022/05/14 09:48:32;;;;;;;7.22;2.38;;;;;;;;;;5052256;28;20237;-83
2022/05/14 09:51:01;;;;;;;4.28;1.80;;;;;;;;;;5053328;28;20224;-85
2022/05/14 09:53:31;;;;;;;3.70;1.80;;;;;;;;;;5051794;28;20230;-83
2022/05/14 09:56:13;;;;;;;3.72;1.85;;;;;;;;;;5053442;28;20602;-83
2022/05/14 09:58:45;;;;;;;2.97;1.80;;;;;;;;;;5036162;28;20237;-84
2022/05/14 10:01:17;;;;;;;4.82;1.80;;;;;;;;;;5052851;28;20209;-85
2022/05/14 10:03:50;;;;;;;3.38;1.75;;;;;;;;;;5052425;28;20309;-85
2022/05/14 10:06:28;;;;;;;6.70;2.22;;;;;;;;;;5052091;28;20230;-85
2022/05/14 10:09:10;;;;;;;2.20;2.00;;;;;;;;;;5051859;28;20237;-84
2022/05/14 10:11:40;;;;;;;4.72;2.28;;;;;;;;;;5053733;28;20202;-85
2022/05/14 10:14:15;;;;;;;2.38;1.33;;;;;;;;;;5039980;28;20238;-84
2022/05/14 10:16:47;;;;;;;3.65;1.80;;;;;;;;;;5033500;28;20190;-85
2022/05/14 10:19:33;;;;;;;4.03;2.08;;;;;;;;;;5053995;28;20238;-85
2022/05/14 10:22:07;;;;;;;3.40;1.70;;;;;;;;;;5052742;28;20205;-85
2022/05/14 10:27:36;;;;;;;4.55;2.10;;;;;;;;;;5032233;28;20245;-85
2022/05/14 10:30:14;;;;;;;3.38;1.70;;;;;;;;;;5030782;28;20234;-86
2022/05/14 10:32:42;;;;;;;4.07;1.95;;;;;;;;;;5032610;28;20264;-87
2022/05/14 10:35:11;;;;;;;5.40;2.00;;;;;;;;;;5032373;28;20230;-84
2022/05/14 10:37:43;;;;;;;4.72;1.95;;;;;;;;;;5032280;28;20217;-83
2022/05/14 10:40:16;;;;;;;3.00;1.60;;;;;;;;;;5031260;28;20245;-85
2022/05/14 10:42:48;;;;;;;3.17;1.92;;;;;;;;;;5031302;28;20766;-87
2022/05/14 10:45:17;;;;;;;5.00;1.63;;;;;;;;;;5031567;28;20234;-88
2022/05/14 10:47:47;;;;;;;3.35;1.73;;;;;;;;;;5031729;28;20226;-87
2022/05/14 10:50:16;;;;;;;6.70;1.95;;;;;;;;;;5031029;28;20234;-87
2022/05/14 10:52:44;;;;;;;3.13;1.77;;;;;;;;;;5031764;28;20577;-85
2022/05/14 10:55:17;;;;;;;4.78;1.90;;;;;;;;;;5048067;28;20236;-85
2022/05/14 10:57:47;;;;;;;4.90;1.17;;;;;;;;;;5072828;28;20221;-84
2022/05/14 11:00:20;;;;;;;3.17;1.20;;;;;;;;;;5073148;28;20233;-86
2022/05/14 11:02:55;;;;;;;2.72;1.38;;;;;;;;;;5073579;28;20278;-84
2022/05/14 11:05:34;;;;;;;4.43;1.63;;;;;;;;;;5072127;28;20236;-82
2022/05/14 11:08:11;;;;;;;1.95;1.17;;;;;;;;;;5070663;28;20229;-82
2022/05/14 11:10:39;;;;;;;3.08;1.90;;;;;;;;;;5072013;28;20666;-83
2022/05/14 11:13:11;;;;;;;2.88;1.42;;;;;;;;;;5075520;28;20713;-82
2022/05/14 11:15:39;;;;;;;3.80;2.83;;;;;;;;;;5075022;28;20205;-83
2022/05/14 11:18:07;;;;;;;6.18;3.33;;;;;;;;;;5074335;28;20238;-83
2022/05/14 11:20:35;;;;;;;3.92;1.80;;;;;;;;;;5072743;28;20232;-85
2022/05/14 11:23:07;;;;;;;5.38;2.20;;;;;;;;;;5071646;28;20233;-85
2022/05/14 11:25:34;;;;;;;5.70;1.65;;;;;;;;;;5073986;28;20224;-85
2022/05/14 11:28:05;;;;;;;2.50;1.27;;;;;;;;;;5073466;28;20236;-84
2022/05/14 11:30:35;;;;;;;3.35;1.48;;;;;;;;;;5076776;28;20242;-81
2022/05/14 11:33:06;;;;;;;5.90;1.73;;;;;;;;;;5075852;28;20222;-82
2022/05/14 11:35:40;;;;;;;3.95;1.58;;;;;;;;;;5053039;28;20206;-83
2022/05/14 11:38:15;;;;;;;2.90;1.40;;;;;;;;;;5056271;28;20717;-83
2022/05/14 11:40:42;;;;;;;2.88;1.35;;;;;;;;;;5063551;28;20217;-82
2022/05/14 11:43:13;;;;;;;3.83;1.65;;;;;;;;;;5055916;28;20198;-84
2022/05/14 11:45:42;;;;;;;152.07;135.20;;;;;;;;;;5055752;28;20209;-86
2022/05/14 11:48:11;;;;;;;6.63;5.00;;;;;;;;;;5042797;28;20241;-83
2022/05/14 11:50:42;;;;;;;2.85;2.15;;;;;;;;;;5036938;28;20207;-83
2022/05/14 11:53:28;;;;;;;2.10;1.70;;;;;;;;;;5037109;28;20221;-85
2022/05/14 11:55:59;;;;;;;2.40;1.75;;;;;;;;;;5053878;28;20658;-85
2022/05/14 11:58:29;;;;;;;6.95;6.25;;;;;;;;;;5053433;28;20257;-86
2022/05/14 12:00:57;;;;;;;7.25;3.53;;;;;;;;;;5053938;28;20214;-84
2022/05/14 12:03:26;;;;;;;8.50;5.57;;;;;;;;;;5052857;28;20230;-84
2022/05/14 12:05:55;;;;;;;6.90;2.70;;;;;;;;;;5053538;28;20241;-86
2022/05/14 12:08:41;;;;;;;3.97;2.10;;;;;;;;;;5052391;28;20621;-85
2022/05/14 12:11:15;;;;;;;3.40;2.40;;;;;;;;;;5053820;28;20213;-85
2022/05/14 12:13:45;;;;;;;4.13;1.98;;;;;;;;;;5053018;28;20233;-85
2022/05/14 12:16:13;;;;;;;3.15;1.88;;;;;;;;;;5053555;28;20263;-84
2022/05/14 12:18:41;;;;;;;2.95;1.70;;;;;;;;;;5052458;28;20248;-86
2022/05/14 12:21:09;;;;;;;1.90;1.52;;;;;;;;;;5053899;28;20575;-86
2022/05/14 12:23:37;;;;;;;3.67;2.05;;;;;;;;;;5053296;28;20313;-85
2022/05/14 12:26:06;;;;;;;2.55;1.60;;;;;;;;;;5053884;28;20214;-84
2022/05/14 12:28:35;;;;;;;4.68;1.63;;;;;;;;;;5052419;28;20237;-85
2022/05/14 12:33:53;;;;;;;3.72;1.33;;;;;;;;;;5053024;28;20237;-85
2022/05/14 12:36:20;;;;;;;3.33;2.13;;;;;;;;;;5053736;28;20190;-86
2022/05/14 12:38:48;;;;;;;2.88;1.75;;;;;;;;;;5052273;28;20563;-86
2022/05/14 12:41:31;;;;;;;2.08;1.20;;;;;;;;;;5053344;28;20202;-86
2022/05/14 12:43:58;;;;;;;4.10;1.50;;;;;;;;;;5052063;28;20238;-85
2022/05/14 12:46:27;;;;;;;2.55;1.58;;;;;;;;;;5052153;28;20655;-85
2022/05/14 12:48:57;;;;;;;2.22;1.08;;;;;;;;;;5052426;28;20321;-85
2022/05/14 12:51:25;;;;;;;3.70;1.80;;;;;;;;;;5054390;28;20202;-84
2022/05/14 12:53:53;;;;;;;2.05;1.40;;;;;;;;;;5052913;28;20245;-86
2022/05/14 12:56:22;;;;;;;4.20;1.70;;;;;;;;;;5053389;28;20540;-85
2022/05/14 12:58:49;;;;;;;2.63;1.73;;;;;;;;;;5053428;28;20237;-86
2022/05/14 13:01:18;;;;;;;2.70;1.85;;;;;;;;;;5054163;28;20202;-87
2022/05/14 13:03:48;;;;;;;3.00;1.27;;;;;;;;;;5053189;28;20803;-86
2022/05/14 13:06:16;;;;;;;2.30;1.30;;;;;;;;;;5053962;28;20210;-85
2022/05/14 13:08:44;;;;;;;5.20;1.63;;;;;;;;;;5052453;28;20243;-84
2022/05/14 13:11:16;;;;;;;3.95;1.70;;;;;;;;;;5053869;28;20642;-84
2022/05/14 13:13:44;;;;;;;4.85;1.70;;;;;;;;;;5052733;28;20279;-84
2022/05/14 13:16:13;;;;;;;2.80;1.40;;;;;;;;;;5053423;28;20636;-85
2022/05/14 13:18:42;;;;;;;2.45;1.20;;;;;;;;;;5051899;28;20237;-85
2022/05/14 13:21:16;;;;;;;3.15;1.23;;;;;;;;;;5052755;28;20206;-84
2022/05/14 13:23:52;;;;;;;2.20;1.42;;;;;;;;;;5052122;28;20233;-85
2022/05/14 13:26:25;;;;;;;2.90;1.42;;;;;;;;;;5056830;28;20221;-85
2022/05/14 13:28:52;;;;;;;2.60;1.40;;;;;;;;;;5060726;28;20241;-85
2022/05/14 13:31:21;;;;;;;1.27;1.00;;;;;;;;;;5063728;28;20210;-86
2022/05/14 13:33:57;;;;;;;1.23;0.95;;;;;;;;;;5063324;28;20257;-85
2022/05/14 13:39:12;;;;;;;2.78;0.90;;;;;;;;;;5062959;28;20248;-84
2022/05/14 13:41:42;;;;;;;4.68;1.50;;;;;;;;;;5061262;28;20206;-84
2022/05/14 13:44:16;;;;;;;2.10;1.27;;;;;;;;;;5061558;28;20226;-86
2022/05/14 13:46:44;;;;;;;1.60;1.17;;;;;;;;;;5060329;28;20198;-85
2022/05/14 13:49:18;;;;;;;4.93;2.03;;;;;;;;;;5039953;28;20566;-85
2022/05/14 13:51:51;;;;;;;3.30;1.60;;;;;;;;;;5043439;28;20203;-85
2022/05/14 13:54:29;;;;;;;2.70;1.23;;;;;;;;;;5045232;28;20237;-85
2022/05/14 13:57:00;;;;;;;4.57;1.60;;;;;;;;;;5058463;28;20722;-86
2022/05/14 13:59:30;;;;;;;2.05;1.20;;;;;;;;;;5058641;28;20233;-86
2022/05/14 14:02:07;;;;;;;1.88;1.35;;;;;;;;;;5063945;28;20762;-85
2022/05/14 14:04:35;;;;;;;1.65;1.27;;;;;;;;;;5063584;28;20242;-86
2022/05/14 14:07:06;;;;;;;5.13;2.10;;;;;;;;;;5064512;28;20210;-85
2022/05/14 14:09:34;;;;;;;2.95;1.13;;;;;;;;;;5063896;28;20241;-84
2022/05/14 14:12:02;;;;;;;2.28;1.48;;;;;;;;;;5062680;28;20848;-84
2022/05/14 14:14:29;;;;;;;2.22;1.45;;;;;;;;;;5062262;28;20234;-84
2022/05/14 14:16:56;;;;;;;3.55;1.50;;;;;;;;;;5080496;28;20204;-83
2022/05/14 14:19:24;;;;;;;1.40;1.25;;;;;;;;;;5082992;28;20233;-83
2022/05/14 14:21:51;;;;;;;4.07;1.35;;;;;;;;;;5083115;28;20209;-83
2022/05/14 14:24:21;;;;;;;2.63;1.20;;;;;;;;;;5082354;28;20240;-83
2022/05/14 14:26:49;;;;;;;1.23;0.82;;;;;;;;;;5082264;28;20206;-82
2022/05/14 14:29:19;;;;;;;4.30;1.45;;;;;;;;;;5082599;28;20241;-83
2022/05/14 14:31:46;;;;;;;3.83;1.27;;;;;;;;;;5057780;28;20214;-82
2022/05/14 14:34:13;;;;;;;1.40;1.25;;;;;;;;;;5043504;28;20310;-83
2022/05/14 14:36:40;;;;;;;1.95;1.08;;;;;;;;;;5044017;28;20234;-83
2022/05/14 14:39:07;;;;;;;3.78;2.67;;;;;;;;;;5042724;28;20342;-83
2022/05/14 14:41:36;;;;;;;3.15;1.27;;;;;;;;;;5043092;28;20658;-83
2022/05/14 14:44:04;;;;;;;4.40;1.23;;;;;;;;;;5060740;28;20632;-84
2022/05/14 14:46:31;;;;;;;3.13;2.15;;;;;;;;;;5062940;28;20547;-84
2022/05/14 14:49:03;;;;;;;2.80;1.30;;;;;;;;;;5046320;28;20242;-84
2022/05/14 14:51:30;;;;;;;2.83;1.10;;;;;;;;;;5063282;28;20236;-84
2022/05/14 14:53:57;;;;;;;4.07;1.20;;;;;;;;;;5060852;28;20609;-84
2022/05/14 14:56:24;;;;;;;1.70;0.93;;;;;;;;;;5062240;28;20213;-83
2022/05/14 14:58:54;;;;;;;2.33;1.30;;;;;;;;;;5061901;28;20244;-80
2022/05/14 15:01:22;;;;;;;2.55;1.17;;;;;;;;;;5061757;28;20209;-84
2022/05/14 15:03:51;;;;;;;2.35;1.40;;;;;;;;;;5061122;28;20229;-83
2022/05/14 15:06:19;;;;;;;2.13;1.67;;;;;;;;;;5061184;28;20205;-83
2022/05/14 15:08:47;;;;;;;2.20;1.40;;;;;;;;;;5051417;28;20290;-84
2022/05/14 15:11:16;;;;;;;2.03;1.27;;;;;;;;;;5060194;28;20209;-84
2022/05/14 15:13:44;;;;;;;2.03;1.23;;;;;;;;;;5063475;28;20225;-84
2022/05/14 15:16:13;;;;;;;6.20;1.48;;;;;;;;;;5065833;28;20289;-83
2022/05/14 15:18:40;;;;;;;1.63;1.20;;;;;;;;;;5064559;28;20682;-84